Time;durP1;ratioP1;P1;durP2;ratioP2;P2;SDS_P1;SDS_P2;PMS_P1;PMS_P2;Temp;Humidity;BMP_temperature;BMP_pressure;BME280_temperature;BME280_humidity;BME280_pressure;Samples;Min_cycle;Max_cycle;Signal;HPM_P1;HPM_P2
2021/03/27 00:00:46;;;;;;;30.88;22.58;;;;;;;8.01;59.96;101165.45;1770552;79;21660;-44
2021/03/27 00:03:30;;;;;;;25.68;19.87;;;;;;;8.00;59.93;101163.26;1769466;79;21153;-40
2021/03/27 00:06:08;;;;;;;26.35;20.72;;;;;;;8.02;60.11;101158.76;1762821;79;21153;-41
2021/03/27 00:08:53;;;;;;;30.95;21.68;;;;;;;8.03;59.96;101151.19;1781331;79;21134;-42
2021/03/27 00:11:42;;;;;;;30.77;22.05;;;;;;;8.05;59.83;101152.47;1783955;79;21145;-42
2021/03/27 00:14:14;;;;;;;30.68;21.65;;;;;;;8.05;59.80;101147.62;1768067;79;21127;-41
2021/03/27 00:17:02;;;;;;;30.72;22.80;;;;;;;8.07;60.00;101144.45;1765591;79;21714;-41
2021/03/27 00:19:52;;;;;;;28.85;21.97;;;;;;;8.07;59.84;101144.45;1737717;81;21177;-43
2021/03/27 00:22:24;;;;;;;35.40;24.43;;;;;;;8.05;59.68;101141.84;1728224;81;21592;-44
2021/03/27 00:25:28;;;;;;;32.58;23.10;;;;;;;8.03;59.56;101143.68;1673600;83;21197;-46
2021/03/27 00:28:19;;;;;;;31.40;20.95;;;;;;;8.01;59.58;101145.09;1696205;83;21196;-46
2021/03/27 00:30:54;;;;;;;26.27;20.50;;;;;;;7.94;59.75;101143.58;1688547;83;21241;-42
2021/03/27 00:33:24;;;;;;;29.52;22.25;;;;;;;7.89;59.88;101146.87;1684347;83;21169;-44
2021/03/27 00:36:03;;;;;;;34.67;22.55;;;;;;;7.88;59.99;101156.20;1691274;83;21173;-40
2021/03/27 00:38:41;;;;;;;29.70;22.90;;;;;;;7.86;60.09;101148.75;1665252;84;21713;-41
2021/03/27 00:41:13;;;;;;;31.07;22.52;;;;;;;7.85;60.05;101147.03;1660819;84;21185;-40
2021/03/27 00:43:49;;;;;;;29.92;21.23;;;;;;;7.80;60.10;101147.19;1668611;83;21169;-42
2021/03/27 00:46:17;;;;;;;27.77;20.95;;;;;;;7.76;60.19;101139.81;1659821;83;21150;-43
2021/03/27 00:49:09;;;;;;;33.23;22.58;;;;;;;7.78;60.22;101146.38;1670945;83;21188;-46
2021/03/27 00:51:48;;;;;;;31.73;22.65;;;;;;;7.79;60.20;101153.44;1664473;85;21212;-44
2021/03/27 00:54:30;;;;;;;32.30;22.67;;;;;;;7.77;60.22;101150.83;1708946;83;21190;-43
2021/03/27 00:57:26;;;;;;;36.00;25.12;;;;;;;7.74;60.31;101148.76;1631330;83;21203;-46
2021/03/27 01:00:14;;;;;;;31.20;23.20;;;;;;;7.69;60.45;101148.92;1654854;83;21161;-45
2021/03/27 01:03:06;;;;;;;29.90;22.62;;;;;;;7.68;60.48;101151.61;1678490;84;21634;-45
2021/03/27 01:05:52;;;;;;;29.85;23.57;;;;;;;7.69;60.55;101160.00;1682359;84;21180;-45
2021/03/27 01:08:31;;;;;;;33.67;23.75;;;;;;;7.71;60.53;101151.06;1802205;77;23511;-45
2021/03/27 01:11:26;;;;;;;33.60;25.70;;;;;;;7.63;60.57;101151.77;1790005;78;21125;-41
2021/03/27 01:13:57;;;;;;;34.38;25.27;;;;;;;7.59;60.59;101148.84;1807988;78;21139;-44
2021/03/27 01:16:31;;;;;;;29.12;23.67;;;;;;;7.57;60.88;101146.70;1805627;78;21141;-44
2021/03/27 01:19:13;;;;;;;33.18;24.98;;;;;;;7.57;60.95;101150.21;1783592;79;21538;-45
2021/03/27 01:21:41;;;;;;;34.38;23.45;;;;;;;7.58;60.92;101146.66;1782730;79;21144;-44
2021/03/27 01:24:12;;;;;;;31.97;25.43;;;;;;;7.61;60.85;101148.77;1778033;78;21157;-43
2021/03/27 01:26:59;;;;;;;;;;;;;;;7.61;60.83;101150.09;1808135;78;21149;-44
2021/03/27 01:29:52;;;;;;;36.38;21.90;;;;;;;7.59;60.81;101148.84;1806931;77;20159;-44
2021/03/27 01:32:35;;;;;;;30.08;22.17;;;;;;;7.59;60.77;101153.69;1808861;78;21165;-40
2021/03/27 01:35:33;;;;;;;27.77;22.15;;;;;;;7.55;60.80;101152.05;1807853;78;21122;-44
2021/03/27 01:38:20;;;;;;;26.60;21.33;;;;;;;7.52;60.86;101150.83;1802398;78;21135;-44
2021/03/27 01:41:30;;;;;;;30.30;21.85;;;;;;;7.53;60.81;101154.34;1807055;77;21092;-44
2021/03/27 01:44:25;;;;;;;28.92;22.60;;;;;;;7.52;60.69;101159.27;1805006;78;21384;-41
2021/03/27 01:47:35;;;;;;;28.57;22.30;;;;;;;7.48;60.76;101154.97;1801402;78;21670;-44
2021/03/27 01:50:33;;;;;;;27.65;20.25;;;;;;;7.44;60.93;101148.92;1808684;78;21148;-44
2021/03/27 01:53:31;;;;;;;29.45;20.70;;;;;;;7.41;61.04;101152.12;1811319;77;21161;-43
2021/03/27 01:56:30;;;;;;;33.73;23.03;;;;;;;7.41;61.05;101154.34;1804290;77;21098;-44
2021/03/27 01:59:14;;;;;;;28.35;21.42;;;;;;;7.43;61.02;101156.92;1757606;80;21188;-43
2021/03/27 02:01:57;;;;;;;34.60;23.47;;;;;;;7.42;61.21;101152.55;1729911;82;21533;-45
2021/03/27 02:04:31;;;;;;;32.42;23.22;;;;;;;7.42;61.21;101152.55;1690006;83;21253;-45
2021/03/27 02:07:39;;;;;;;34.00;25.45;;;;;;;7.46;61.04;101154.16;1800520;78;22975;-42
2021/03/27 02:10:24;;;;;;;34.00;26.42;;;;;;;7.43;61.00;101163.55;1769935;79;21142;-42
2021/03/27 02:13:03;;;;;;;33.90;26.33;;;;;;;7.43;61.04;101160.44;1772499;79;21147;-43
2021/03/27 02:16:07;;;;;;;34.27;24.15;;;;;;;7.41;61.09;101159.64;1775578;80;21129;-41
2021/03/27 02:19:02;;;;;;;31.65;23.67;;;;;;;7.40;61.13;101164.53;1742217;82;21153;-43
2021/03/27 02:21:47;;;;;;;29.27;21.90;;;;;;;7.40;61.08;101161.88;1734666;82;21164;-44
2021/03/27 02:24:39;;;;;;;31.27;22.73;;;;;;;7.43;61.06;101164.88;1734883;81;21581;-43
2021/03/27 02:27:14;;;;;;;28.60;22.07;;;;;;;7.46;61.02;101162.11;1742436;80;21561;-42
2021/03/27 02:29:53;;;;;;;28.67;21.07;;;;;;;7.46;60.97;101164.34;1701216;82;21152;-42
2021/03/27 02:32:51;;;;;;;23.77;18.42;;;;;;;7.47;61.03;101160.75;1674314;84;21187;-44
2021/03/27 02:35:40;;;;;;;25.68;19.75;;;;;;;7.45;61.06;101166.56;1736177;81;21168;-42
2021/03/27 02:38:46;;;;;;;25.37;19.98;;;;;;;7.48;61.02;101170.89;1737531;81;21153;-44
2021/03/27 02:42:24;;;;;;;28.98;19.98;;;;;;;7.54;60.89;101166.72;1797605;78;23045;-44
2021/03/27 02:45:14;;;;;;;26.50;19.17;;;;;;;7.49;60.84;101170.85;1781606;78;21676;-41
2021/03/27 02:48:05;;;;;;;26.93;18.98;;;;;;;7.46;60.88;101163.01;1712284;82;21161;-39
2021/03/27 02:50:54;;;;;;;26.80;20.08;;;;;;;7.46;60.88;101163.01;1721639;81;21177;-41
2021/03/27 02:53:48;;;;;;;26.33;19.75;;;;;;;7.50;60.91;101173.05;1717476;82;21641;-44
2021/03/27 02:56:28;;;;;;;26.12;20.10;;;;;;;7.51;60.92;101165.47;1740560;80;21685;-43
2021/03/27 02:59:33;;;;;;;24.85;17.87;;;;;;;7.53;60.94;101172.50;1715523;82;22028;-42
2021/03/27 03:02:06;;;;;;;25.92;19.65;;;;;;;7.55;60.89;101171.09;1731705;81;21114;-42
2021/03/27 03:04:42;;;;;;;38.40;18.95;;;;;;;7.58;60.89;101179.84;1730279;81;21604;-41
2021/03/27 03:07:30;;;;;;;29.40;20.27;;;;;;;7.61;60.88;101179.30;1706448;82;21242;-43
2021/03/27 03:10:10;;;;;;;23.40;18.85;;;;;;;7.62;60.99;101177.92;1715217;81;21251;-42
2021/03/27 03:13:04;;;;;;;27.60;20.90;;;;;;;7.63;60.94;101180.97;1719183;81;21156;-42
2021/03/27 03:15:42;;;;;;;25.60;19.57;;;;;;;7.63;60.87;101180.11;1712322;81;21150;-43
2021/03/27 03:18:25;;;;;;;26.07;19.98;;;;;;;7.63;60.87;101178.78;1698796;82;21202;-43
2021/03/27 03:21:04;;;;;;;27.93;18.02;;;;;;;7.62;60.79;101175.73;1712360;82;21194;-43
2021/03/27 03:23:43;;;;;;;24.15;19.12;;;;;;;7.61;60.74;101179.30;1705541;82;21596;-42
2021/03/27 03:26:48;;;;;;;24.70;18.73;;;;;;;7.57;60.74;101176.75;1707281;82;21175;-39
2021/03/27 03:29:33;;;;;;;23.42;18.52;;;;;;;7.56;60.82;101186.12;1686862;83;21156;-41
2021/03/27 03:32:24;;;;;;;22.37;18.37;;;;;;;7.55;60.85;101181.71;1681679;82;21662;-41
2021/03/27 03:35:20;;;;;;;25.02;19.35;;;;;;;7.54;60.98;101186.16;1684351;83;21172;-42
2021/03/27 03:38:14;;;;;;;27.82;19.30;;;;;;;7.54;60.98;101185.30;1696954;82;21153;-41
2021/03/27 03:41:00;;;;;;;23.67;18.70;;;;;;;7.52;60.96;101193.30;1703741;82;21185;-41
2021/03/27 03:43:58;;;;;;;26.37;19.60;;;;;;;7.50;60.94;101183.66;1682756;82;21180;-42
2021/03/27 03:47:06;;;;;;;23.42;18.45;;;;;;;7.46;60.89;101186.00;1696800;82;21192;-40
2021/03/27 03:50:06;;;;;;;27.30;18.57;;;;;;;7.42;60.92;101183.92;1690915;82;21171;-42
2021/03/27 03:53:28;;;;;;;28.02;18.85;;;;;;;7.45;60.96;101187.79;1789574;78;23065;-43
2021/03/27 03:56:31;;;;;;;28.65;19.42;;;;;;;7.40;60.97;101189.73;1699921;81;21161;-42
2021/03/27 03:59:26;;;;;;;25.75;19.60;;;;;;;7.40;61.03;101186.22;1687631;82;21198;-43
2021/03/27 04:02:18;;;;;;;25.35;18.62;;;;;;;7.40;61.05;101199.48;1711151;82;22047;-42
2021/03/27 04:04:49;;;;;;;26.77;19.95;;;;;;;7.38;61.07;101192.89;1639675;84;21179;-41
2021/03/27 04:07:27;;;;;;;25.23;18.30;;;;;;;7.39;61.08;101198.63;1643756;84;21382;-41
2021/03/27 04:10:11;;;;;;;22.48;18.32;;;;;;;7.39;61.07;101196.44;1662481;84;21624;-44
2021/03/27 04:12:53;;;;;;;27.40;20.48;;;;;;;7.39;61.08;101197.30;1662156;84;21379;-41
2021/03/27 04:15:39;;;;;;;27.85;21.62;;;;;;;7.42;61.18;101196.33;1809373;78;22991;-42
2021/03/27 04:18:34;;;;;;;29.90;20.62;;;;;;;7.39;61.18;101200.42;1774210;80;21109;-43
2021/03/27 04:25:40;;;;;;;30.43;21.65;;;;;;;7.39;61.19;101194.65;1889167;73;28229;-44
2021/03/27 04:28:21;;;;;;;26.05;20.05;;;;;;;7.36;61.11;101198.73;1834045;76;21612;-45
2021/03/27 04:30:52;;;;;;;;;;;;;;;7.38;60.98;101203.51;1831689;77;21163;-40
2021/03/27 04:33:51;;;;;;;28.32;19.70;;;;;;;7.39;60.91;101199.95;1822896;77;20540;-44
2021/03/27 04:36:33;;;;;;;24.75;18.80;;;;;;;7.40;60.81;101206.98;1838517;76;21122;-42
2021/03/27 04:39:27;;;;;;;30.23;20.05;;;;;;;7.43;60.77;101211.32;1758877;79;21153;-42
2021/03/27 04:42:33;;;;;;;32.17;20.35;;;;;;;7.48;60.74;101204.93;1801344;78;23086;-41
2021/03/27 04:45:44;;;;;;;24.07;18.70;;;;;;;7.44;60.75;101209.95;1761599;80;21143;-46
2021/03/27 04:48:31;;;;;;;27.05;19.12;;;;;;;7.41;60.76;101208.73;1751694;79;21304;-45
2021/03/27 04:51:28;;;;;;;24.85;17.65;;;;;;;7.39;60.74;101210.57;1778696;79;21148;-44
2021/03/27 04:54:28;;;;;;;26.00;18.98;;;;;;;7.37;60.83;101213.27;1773293;80;21640;-41
2021/03/27 04:57:27;;;;;;;25.17;18.92;;;;;;;7.36;60.88;101212.01;1759104;80;21128;-39
2021/03/27 05:00:29;;;;;;;24.35;17.52;;;;;;;7.33;60.85;101220.05;1785210;79;21554;-52
2021/03/27 05:03:08;;;;;;;25.45;18.10;;;;;;;7.33;60.85;101220.05;1779504;79;21143;-45
2021/03/27 05:06:06;;;;;;;23.85;17.40;;;;;;;7.33;60.91;101222.70;1775082;79;21553;-44
2021/03/27 05:09:12;;;;;;;26.48;19.20;;;;;;;7.35;60.92;101228.83;1780469;79;21133;-45
2021/03/27 05:12:00;;;;;;;22.55;16.82;;;;;;;7.37;60.86;101237.61;1719772;81;22011;-41
2021/03/27 05:14:36;;;;;;;23.15;18.60;;;;;;;7.37;60.77;101234.49;1693845;81;21983;-41
2021/03/27 05:17:28;;;;;;;25.90;17.98;;;;;;;7.39;60.75;101237.58;1741441;81;21145;-41
2021/03/27 05:20:26;;;;;;;23.75;18.45;;;;;;;7.41;60.73;101239.26;1723013;81;21561;-40
2021/03/27 05:23:08;;;;;;;25.52;19.15;;;;;;;7.42;60.69;101237.00;1711927;83;21142;-40
2021/03/27 05:26:03;;;;;;;29.07;20.70;;;;;;;7.45;60.64;101246.17;1729184;81;21145;-40
2021/03/27 05:28:45;;;;;;;26.80;19.30;;;;;;;7.49;60.63;101242.52;1728248;81;21157;-43
2021/03/27 05:31:27;;;;;;;24.80;18.62;;;;;;;7.52;60.71;101246.38;1727064;82;21617;-43
2021/03/27 05:34:22;;;;;;;28.45;19.37;;;;;;;7.54;60.64;101243.22;1728883;82;21170;-43
2021/03/27 05:37:30;;;;;;;29.63;19.70;;;;;;;7.58;60.40;101243.97;1729298;82;21181;-43
2021/03/27 05:40:26;;;;;;;32.98;21.20;;;;;;;7.62;60.35;101245.62;1670287;84;21188;-43
2021/03/27 05:43:26;;;;;;;28.60;21.00;;;;;;;7.65;60.18;101241.98;1672597;84;21185;-44
2021/03/27 05:46:29;;;;;;;27.80;20.20;;;;;;;7.65;59.78;101243.31;1678154;84;21176;-44
2021/03/27 05:49:44;;;;;;;26.48;19.07;;;;;;;7.67;60.01;101252.10;1666015;84;21164;-44
2021/03/27 05:52:50;;;;;;;31.27;20.12;;;;;;;7.68;59.82;101248.52;1657664;84;21183;-42
2021/03/27 05:55:42;;;;;;;25.08;18.00;;;;;;;7.71;59.70;101250.63;1688800;83;21161;-42
2021/03/27 05:58:18;;;;;;;;;;;;;;;7.75;59.64;101245.59;1690044;83;21618;-41
2021/03/27 06:01:07;;;;;;;25.27;18.20;;;;;;;7.82;59.71;101249.38;1685815;83;20312;-41
2021/03/27 06:04:01;;;;;;;26.55;20.40;;;;;;;7.88;59.43;101250.48;1686757;83;21165;-43
2021/03/27 06:06:53;;;;;;;23.32;18.65;;;;;;;7.97;59.23;101248.38;1800950;78;22873;-43
2021/03/27 06:09:52;;;;;;;26.10;20.43;;;;;;;7.96;58.88;101253.29;1721121;81;21137;-43
2021/03/27 06:12:40;;;;;;;30.57;20.55;;;;;;;7.99;59.01;101253.17;1725402;82;21587;-41
2021/03/27 06:15:39;;;;;;;34.03;19.55;;;;;;;8.03;58.51;101251.27;1722344;82;21145;-42
2021/03/27 06:18:52;;;;;;;25.35;18.60;;;;;;;8.06;58.56;101252.47;1717267;82;21589;-42
2021/03/27 06:21:45;;;;;;;24.05;18.75;;;;;;;8.12;58.22;101248.75;1706052;83;21165;-43
2021/03/27 06:24:30;;;;;;;28.27;21.45;;;;;;;8.18;58.21;101256.02;1705651;83;21157;-47
2021/03/27 06:27:36;;;;;;;27.82;20.08;;;;;;;8.22;58.01;101258.13;1707266;83;21123;-49
2021/03/27 06:30:31;;;;;;;29.30;19.48;;;;;;;8.25;57.88;101256.67;1707731;83;21157;-48
2021/03/27 06:33:31;;;;;;;26.62;19.75;;;;;;;8.31;57.67;101253.78;1707262;82;21581;-44
2021/03/27 06:36:13;;;;;;;30.05;21.23;;;;;;;8.35;57.18;101258.07;1619508;87;21185;-41
2021/03/27 06:39:33;;;;;;;27.65;19.90;;;;;;;8.38;57.63;101258.42;1618332;87;21181;-45
2021/03/27 06:42:41;;;;;;;27.07;19.77;;;;;;;8.42;57.27;101258.28;1637852;86;21688;-44
2021/03/27 06:46:01;;;;;;;25.37;20.12;;;;;;;8.53;56.99;101255.22;1792617;78;22948;-45
2021/03/27 06:48:54;;;;;;;29.05;21.60;;;;;;;8.56;56.64;101266.20;1759665;80;21117;-44
2021/03/27 06:52:03;;;;;;;28.35;21.12;;;;;;;8.60;56.61;101259.84;1706227;81;21845;-45
2021/03/27 06:54:57;;;;;;;27.10;19.85;;;;;;;8.68;56.58;101263.08;1703106;82;21838;-46
2021/03/27 06:58:01;;;;;;;25.37;19.45;;;;;;;8.78;56.33;101260.94;1802646;78;23115;-44
2021/03/27 07:00:43;;;;;;;25.60;19.55;;;;;;;8.82;56.20;101276.72;1777454;79;21153;-44
2021/03/27 07:03:50;;;;;;;26.90;21.17;;;;;;;8.90;55.82;101270.24;1716012;81;21153;-44
2021/03/27 07:07:04;;;;;;;24.95;19.85;;;;;;;8.95;55.38;101265.61;1710214;82;21157;-49
2021/03/27 07:09:58;;;;;;;24.90;18.95;;;;;;;9.05;55.00;101270.97;1729060;82;21467;-43
2021/03/27 07:12:59;;;;;;;30.40;19.70;;;;;;;9.05;55.00;101270.97;1713847;81;21142;-39
2021/03/27 07:16:19;;;;;;;21.33;17.60;;;;;;;9.13;55.07;101270.19;1737980;81;21150;-44
2021/03/27 07:19:32;;;;;;;23.67;17.52;;;;;;;9.36;55.09;101269.72;1685428;83;21201;-40
2021/03/27 07:22:11;;;;;;;22.22;18.00;;;;;;;9.47;54.35;101274.13;1628107;86;21683;-44
2021/03/27 07:25:17;;;;;;;27.37;19.90;;;;;;;9.47;54.35;101274.13;1675127;84;21130;-42
2021/03/27 07:28:10;;;;;;;22.93;16.20;;;;;;;9.66;54.55;101272.91;1676141;84;21134;-41
2021/03/27 07:31:05;;;;;;;27.70;18.40;;;;;;;9.66;54.55;101272.91;1672458;84;21169;-44
2021/03/27 07:34:27;;;;;;;27.10;17.73;;;;;;;9.83;52.95;101274.87;1780912;79;23672;-42
2021/03/27 07:37:11;;;;;;;26.75;17.85;;;;;;;9.89;53.27;101271.45;1760609;80;21150;-55
2021/03/27 07:40:08;;;;;;;24.02;20.08;;;;;;;9.89;53.27;101271.45;1755272;80;21614;-46
2021/03/27 07:43:07;;;;;;;24.37;17.48;;;;;;;9.98;52.69;101274.20;1699979;82;21185;-47
2021/03/27 07:46:17;;;;;;;24.80;19.27;;;;;;;10.06;53.27;101273.39;1722595;81;21131;-49
2021/03/27 07:49:31;;;;;;;27.30;17.52;;;;;;;10.16;52.14;101277.38;1723348;81;21170;-41
2021/03/27 07:52:29;;;;;;;25.82;18.40;;;;;;;10.24;52.37;101273.04;1700586;82;21170;-43
2021/03/27 07:55:34;;;;;;;29.32;18.45;;;;;;;10.32;52.03;101270.92;1761198;80;21103;-44
2021/03/27 07:58:29;;;;;;;27.05;19.60;;;;;;;10.38;51.68;101268.00;1753078;80;21672;-43
2021/03/27 08:01:26;;;;;;;24.70;18.27;;;;;;;10.47;51.27;101269.37;1758925;80;21154;-43
2021/03/27 08:04:14;;;;;;;22.87;18.62;;;;;;;10.56;51.30;101278.77;1760266;80;21141;-43
2021/03/27 08:06:51;;;;;;;25.52;19.60;;;;;;;10.62;51.10;101278.47;1752248;80;21128;-44
2021/03/27 08:09:58;;;;;;;25.70;18.92;;;;;;;10.69;50.68;101271.06;1759206;80;21192;-43
2021/03/27 08:13:09;;;;;;;25.10;18.17;;;;;;;10.76;50.45;101273.81;1761264;80;21149;-44
2021/03/27 08:15:57;;;;;;;;;;;;;;;10.85;50.20;101273.39;1703262;82;21150;-43
2021/03/27 08:19:20;;;;;;;20.95;15.93;;;;;;;10.90;49.66;101265.17;1722276;81;20201;-41
2021/03/27 08:22:45;;;;;;;24.35;18.92;;;;;;;10.95;49.85;101266.68;1736332;81;21149;-41
